Skip Navigation LinksHome page > Weather > Current weather Skip Navigation Links

Current Weather

Chicago O'Hare Intl, Chicago

For information only: do not use for flight planning or navigation.
Latest weather
Observation time Friday, April 3, 2020 10:51 AM CDT
Local time Friday, April 3, 2020 11:03 AM CDT
Flight conditions Visual Meteorological Conditions
Winds
Wind direction South-Southeast (160°)
Wind speed 3 mph
Visibility 10 mi.
Sky condition
Ceiling 10,000 ft. overcast
Cloud layer overcast 10,000 ft.
Temperature 60°F
Dewpoint 41°F
Altimeter 30.07 in.Hg
Derived measurements
Relative humidity 49%
Density altitude 698 ft.
Sea-level pressure 30.07 in.Hg
Remarks
Automated weather observing station with precipitation discriminator.
METAR KORD 031551Z 16003KT 10SM OVC100 16/05 A3007 RMK AO2 SLP182 T01560050

Settings

Location code

InnerDrive.Weather 4.0.6770.0 Release CLR 4.0.30319.42000
Copyright ©2018 Inner Drive Technology. All rights reserved. Portions Copyright ©1986-2018 David Braverman.

Find weather

Site navigation


Skip Navigation Links

Place info

Page info

PayPal - The safer, easier way to pay online!

Return home.

Copyright ©2020 Inner Drive Technology. Purveyors of fine, hand-crafted computer software. Page printed 2020-04-03T16:03:05 UTC.